Time;durP1;ratioP1;P1;durP2;ratioP2;P2;SDS_P1;SDS_P2;PMS_P1;PMS_P2;Temp;Humidity;BMP_temperature;BMP_pressure;BME280_temperature;BME280_humidity;BME280_pressure;Samples;Min_cycle;Max_cycle;Signal;HPM_P1;HPM_P2
2023/04/10 00:00:18;;;;;;;;;15.33;12.33;;;;;17.88;77.15;101670.88;5005108;28;45291;-71
2023/04/10 00:02:44;;;;;;;;;15.33;12.00;;;;;17.82;77.66;101660.56;5005160;28;45280;-71
2023/04/10 00:05:09;;;;;;;;;13.33;11.67;;;;;17.85;76.94;101672.06;5023384;28;45633;-71
2023/04/10 00:07:35;;;;;;;;;15.00;15.00;;;;;17.87;77.31;101653.50;5022674;28;45459;-74
2023/04/10 00:10:00;;;;;;;;;17.67;13.67;;;;;17.85;76.76;101660.19;5004565;28;45407;-71
2023/04/10 00:12:26;;;;;;;;;12.00;10.33;;;;;17.79;76.50;101650.75;5022817;28;45241;-72
2023/04/10 00:14:51;;;;;;;;;12.33;12.00;;;;;17.81;76.49;101648.72;5010101;28;45281;-72
2023/04/10 00:17:16;;;;;;;;;12.33;11.00;;;;;17.89;76.60;101656.94;5037269;28;45572;-72
2023/04/10 00:19:42;;;;;;;;;11.00;11.00;;;;;17.94;76.29;101652.81;5042638;28;45252;-72
2023/04/10 00:22:07;;;;;;;;;11.33;11.33;;;;;17.90;76.98;101653.13;5025093;28;45328;-72
2023/04/10 00:24:33;;;;;;;;;14.33;10.67;;;;;17.84;78.60;101640.09;5042775;28;45265;-72
2023/04/10 00:26:58;;;;;;;;;14.67;12.67;;;;;17.76;78.93;101642.00;5009856;28;46671;-72
2023/04/10 00:29:24;;;;;;;;;15.33;12.67;;;;;17.80;80.30;101636.00;5007245;28;47662;-72
2023/04/10 00:31:49;;;;;;;;;11.67;11.67;;;;;17.79;82.00;101644.41;5008122;28;45336;-72
2023/04/10 00:34:15;;;;;;;;;13.00;13.00;;;;;17.70;80.67;101628.94;5026797;28;45380;-72
2023/04/10 00:36:40;;;;;;;;;13.67;13.67;;;;;17.69;80.27;101622.59;5007696;28;45464;-72
2023/04/10 00:39:08;;;;;;;;;14.33;12.67;;;;;17.64;84.18;101627.75;5025678;28;45324;-72
2023/04/10 00:41:33;;;;;;;;;14.67;11.67;;;;;17.68;81.34;101631.88;5025405;28;45237;-72
2023/04/10 00:43:59;;;;;;;;;12.67;12.67;;;;;17.66;80.36;101620.22;5026228;28;45396;-72
2023/04/10 00:46:26;;;;;;;;;14.00;12.00;;;;;17.70;80.17;101621.56;5029508;28;46134;-72
2023/04/10 00:48:53;;;;;;;;;13.67;12.00;;;;;17.73;78.86;101621.22;5007714;28;45178;-72
2023/04/10 00:51:21;;;;;;;;;12.67;11.67;;;;;17.70;79.28;101606.97;5025468;28;45412;-72
2023/04/10 00:53:49;;;;;;;;;13.67;12.33;;;;;17.65;79.63;101610.25;5025815;28;45298;-72
2023/04/10 00:56:16;;;;;;;;;13.33;12.33;;;;;17.69;78.96;101600.59;5007209;28;47153;-72
2023/04/10 00:58:41;;;;;;;;;13.33;12.00;;;;;17.67;79.36;101610.94;5025438;28;45249;-72
2023/04/10 01:01:07;;;;;;;;;16.33;13.00;;;;;17.70;79.21;101618.81;5007342;28;45269;-72
2023/04/10 01:03:33;;;;;;;;;12.67;12.67;;;;;17.68;77.55;101593.38;5008027;28;45347;-72
2023/04/10 01:06:11;;;;;;;;;11.67;11.67;;;;;17.72;78.43;101592.03;5025479;28;45561;-71
2023/04/10 01:09:03;;;;;;;;;14.33;12.00;;;;;17.62;77.49;101587.72;5025550;28;45502;-72
2023/04/10 01:11:53;;;;;;;;;13.00;10.67;;;;;17.70;78.11;101594.06;5007457;28;45601;-72
2023/04/10 01:14:21;;;;;;;;;16.00;13.33;;;;;17.70;78.48;101594.06;5029366;28;45417;-71
2023/04/10 01:16:59;;;;;;;;;14.00;12.00;;;;;17.64;78.60;101585.69;5034368;28;46094;-72
2023/04/10 01:19:39;;;;;;;;;11.67;11.33;;;;;17.65;78.52;101588.25;5006924;28;45313;-72
2023/04/10 01:22:10;;;;;;;;;12.33;12.33;;;;;17.66;78.32;101584.47;5021236;28;45291;-72
2023/04/10 01:24:49;;;;;;;;;11.67;11.67;;;;;17.65;78.70;101591.00;5045284;28;45474;-70
2023/04/10 01:27:14;;;;;;;;;11.67;11.67;;;;;17.67;78.91;101588.94;5044806;28;45410;-73
2023/04/10 01:29:46;;;;;;;;;13.00;13.00;;;;;17.63;78.92;101584.81;5043511;28;45390;-73
2023/04/10 01:32:19;;;;;;;;;11.33;11.33;;;;;17.63;79.11;101584.81;5045068;28;45304;-72
2023/04/10 01:34:49;;;;;;;;;14.00;14.00;;;;;17.50;79.17;101573.47;5045409;28;45331;-72
2023/04/10 01:37:20;;;;;;;;;13.67;13.00;;;;;17.51;78.34;101575.19;5044577;28;46263;-72
2023/04/10 01:39:49;;;;;;;;;15.33;14.00;;;;;17.60;78.33;101579.66;5026197;28;45490;-72
2023/04/10 01:42:18;;;;;;;;;17.67;12.67;;;;;17.60;78.73;101578.78;5026810;28;45217;-71
2023/04/10 01:44:46;;;;;;;;;11.67;11.00;;;;;17.60;80.39;101578.78;5043217;28;45549;-71
2023/04/10 01:47:14;;;;;;;;;17.00;12.00;;;;;17.60;80.44;101578.78;5024579;28;45443;-73
2023/04/10 01:49:43;;;;;;;;;14.67;13.00;;;;;17.45;81.46;101570.41;5023251;28;45293;-72
2023/04/10 01:52:10;;;;;;;;;16.00;13.00;;;;;17.46;82.92;101574.84;5024671;28;45501;-73
2023/04/10 01:54:36;;;;;;;;;16.67;14.00;;;;;17.47;81.34;101573.81;5024662;28;45550;-73
2023/04/10 01:57:03;;;;;;;;;16.33;13.00;;;;;17.41;81.96;101566.25;5006470;28;45579;-73
2023/04/10 01:59:30;;;;;;;;;13.67;12.67;;;;;17.44;80.68;101564.03;5024555;28;45595;-70
2023/04/10 02:01:59;;;;;;;;;17.00;15.00;;;;;17.41;80.70;101563.50;5024604;28;45277;-71
2023/04/10 02:04:25;;;;;;;;;16.67;15.00;;;;;17.38;81.88;101566.63;5024673;28;45437;-72
2023/04/10 02:06:50;;;;;;;;;18.67;14.00;;;;;17.42;81.60;101567.97;5006288;28;47434;-72
2023/04/10 02:09:39;;;;;;;;;18.00;17.00;;;;;17.45;81.78;101565.75;5022607;28;45316;-72
2023/04/10 02:12:08;;;;;;;;;15.75;14.75;;;;;17.40;81.67;101553.56;5006534;28;45295;-72
2023/04/10 02:14:37;;;;;;;;;15.00;12.75;;;;;17.25;82.50;101547.03;5025602;28;45367;-72
2023/04/10 02:17:03;;;;;;;;;16.33;13.67;;;;;17.34;81.91;101548.75;5019213;28;47292;-72
2023/04/10 02:19:30;;;;;;;;;13.33;11.67;;;;;17.34;82.05;101543.25;5044053;28;45247;-72
2023/04/10 02:21:57;;;;;;;;;13.00;13.00;;;;;17.26;81.95;101535.88;5026267;28;45332;-72
2023/04/10 02:24:24;;;;;;;;;18.67;15.67;;;;;17.34;82.35;101551.50;5026308;28;45243;-71
2023/04/10 02:26:51;;;;;;;;;14.75;13.00;;;;;17.28;82.12;101535.72;5043853;28;46269;-73
2023/04/10 02:29:17;;;;;;;;;12.33;12.33;;;;;17.18;82.40;101524.03;5043980;28;45417;-72
2023/04/10 02:31:43;;;;;;;;;14.33;14.33;;;;;17.26;83.02;101543.25;5044101;28;45407;-71
2023/04/10 02:34:09;;;;;;;;;13.00;13.00;;;;;17.15;82.54;101528.00;5044433;28;45560;-72
2023/04/10 02:36:35;;;;;;;;;13.00;12.67;;;;;17.28;82.36;101542.06;5043640;28;45520;-71
2023/04/10 02:39:01;;;;;;;;;10.67;10.67;;;;;17.15;83.20;101507.94;5043850;28;45283;-72
2023/04/10 02:41:26;;;;;;;;;13.67;13.00;;;;;17.27;84.12;101534.84;5043813;28;45187;-73
2023/04/10 02:43:52;;;;;;;;;14.00;11.00;;;;;17.15;85.05;101528.00;5042934;28;45402;-74
2023/04/10 02:46:17;;;;;;;;;13.00;10.67;;;;;17.05;86.87;101524.56;5029618;28;45257;-73
2023/04/10 02:48:42;;;;;;;;;12.33;10.67;;;;;16.98;88.19;101529.88;5005630;28;45335;-71
2023/04/10 02:51:08;;;;;;;;;14.00;12.00;;;;;16.85;89.21;101526.81;5023153;28;45379;-72
2023/04/10 02:53:33;;;;;;;;;15.67;11.33;;;;;16.74;88.24;101505.16;5006176;28;45616;-73
2023/04/10 02:55:59;;;;;;;;;14.33;14.33;;;;;16.64;88.74;101490.75;5023609;28;46761;-72
2023/04/10 02:58:24;;;;;;;;;12.25;11.50;;;;;16.79;87.04;101518.41;5023592;28;45398;-72
2023/04/10 03:00:50;;;;;;;;;16.00;15.75;;;;;16.81;87.48;101528.16;5023861;28;45268;-71
2023/04/10 03:03:18;;;;;;;;;12.67;11.00;;;;;16.83;88.79;101520.63;5024437;28;45506;-71
2023/04/10 03:05:45;;;;;;;;;10.33;10.33;;;;;16.85;88.20;101524.06;5022112;28;47590;-71
2023/04/10 03:08:14;;;;;;;;;14.75;13.75;;;;;16.81;90.35;101522.66;5023354;28;45193;-71
2023/04/10 03:10:42;;;;;;;;;14.00;11.67;;;;;16.72;88.31;101512.72;5005690;28;45456;-71
2023/04/10 03:13:07;;;;;;;;;13.33;11.00;;;;;16.53;89.46;101483.69;5022490;28;45300;-71
2023/04/10 03:15:32;;;;;;;;;18.00;14.33;;;;;16.71;89.98;101513.75;5018540;28;47531;-71
2023/04/10 03:17:58;;;;;;;;;14.00;14.00;;;;;16.51;89.94;101488.47;5005613;28;45388;-71
2023/04/10 03:20:23;;;;;;;;;12.00;12.00;;;;;16.60;91.17;101497.56;5023363;28;45326;-71
2023/04/10 03:22:49;;;;;;;;;15.00;15.00;;;;;16.60;90.27;101500.31;5005952;28;45431;-71
2023/04/10 03:25:15;;;;;;;;;13.67;13.33;;;;;16.52;90.51;101486.59;5005054;28;46320;-71
2023/04/10 03:27:40;;;;;;;;;12.00;11.33;;;;;16.51;90.81;101491.22;5023133;28;45317;-71
2023/04/10 03:30:08;;;;;;;;;16.00;11.67;;;;;16.50;91.11;101496.88;5023325;28;45473;-72
2023/04/10 03:32:33;;;;;;;;;12.33;12.33;;;;;16.42;90.46;101484.00;5023911;28;45213;-70
2023/04/10 03:34:58;;;;;;;;;15.00;12.33;;;;;16.38;89.90;101479.00;5022922;28;45432;-71
2023/04/10 03:37:26;;;;;;;;;15.25;14.50;;;;;16.30;91.79;101483.47;5023187;28;45415;-71
2023/04/10 03:39:52;;;;;;;;;15.00;14.00;;;;;16.32;91.27;101475.94;5022855;28;45466;-71
2023/04/10 03:42:17;;;;;;;;;16.00;15.50;;;;;16.44;90.71;101497.56;5023628;28;45319;-71
2023/04/10 03:44:42;;;;;;;;;19.50;17.25;;;;;16.42;91.21;101484.00;5010119;28;46962;-72
2023/04/10 03:47:08;;;;;;;;;17.00;16.00;;;;;16.45;91.13;101488.28;5005247;28;45337;-71
2023/04/10 03:49:33;;;;;;;;;14.33;13.00;;;;;16.38;90.66;101477.13;5005242;28;45470;-71
2023/04/10 03:51:58;;;;;;;;;19.50;14.50;;;;;16.38;92.46;101485.34;5023309;28;45617;-71
2023/04/10 03:54:24;;;;;;;;;17.33;12.67;;;;;16.23;93.92;101455.00;5035851;28;46709;-71
2023/04/10 03:56:49;;;;;;;;;16.00;14.00;;;;;16.16;95.35;101450.34;5022980;28;45264;-71
2023/04/10 03:59:14;;;;;;;;;10.25;10.25;;;;;16.24;94.47;101467.69;5022839;28;45213;-71
2023/04/10 04:01:40;;;;;;;;;15.50;15.50;;;;;16.06;96.63;101450.50;5021935;28;45252;-71
2023/04/10 04:04:05;;;;;;;;;16.67;14.67;;;;;16.15;95.32;101468.69;5006725;28;46760;-71
2023/04/10 04:06:31;;;;;;;;;12.67;12.67;;;;;15.98;96.97;101436.78;5008232;28;45315;-71
2023/04/10 04:08:56;;;;;;;;;13.00;11.67;;;;;15.89;96.41;101437.78;5020900;28;45198;-71
2023/04/10 04:11:22;;;;;;;;;14.67;12.67;;;;;15.83;96.13;101430.22;5027625;28;45216;-71
2023/04/10 04:13:47;;;;;;;;;11.67;11.67;;;;;15.99;96.12;101454.94;5026328;28;46302;-72
2023/04/10 04:16:12;;;;;;;;;14.67;11.33;;;;;15.99;95.47;101459.56;5039370;28;45250;-70
2023/04/10 04:18:38;;;;;;;;;11.00;11.00;;;;;15.99;95.75;101457.69;5038261;28;45329;-70
2023/04/10 04:21:03;;;;;;;;;15.00;15.00;;;;;16.09;95.10;101480.31;5028593;28;45638;-72
2023/04/10 04:23:29;;;;;;;;;9.67;9.67;;;;;15.98;95.81;101472.41;5045966;28;46446;-72
2023/04/10 04:25:55;;;;;;;;;15.25;14.25;;;;;15.82;96.92;101464.97;5046088;28;45413;-72
2023/04/10 04:28:21;;;;;;;;;12.75;11.25;;;;;15.96;96.57;101474.44;5045972;28;45251;-72
2023/04/10 04:30:47;;;;;;;;;10.75;10.75;;;;;15.92;95.58;101464.84;5045051;28;45616;-72
2023/04/10 04:33:12;;;;;;;;;14.75;13.00;;;;;16.04;95.76;101479.09;5045856;28;45473;-72
2023/04/10 04:35:37;;;;;;;;;15.75;15.00;;;;;15.76;96.23;101431.91;5045680;28;45381;-71
2023/04/10 04:38:03;;;;;;;;;16.00;13.75;;;;;15.99;95.73;101476.88;5027722;28;45383;-73
2023/04/10 04:40:28;;;;;;;;;14.33;13.33;;;;;15.98;95.54;101477.91;5046232;28;45512;-72
2023/04/10 04:42:53;;;;;;;;;12.33;12.33;;;;;16.05;95.65;101473.47;5027907;28;48056;-72
2023/04/10 04:45:20;;;;;;;;;13.00;11.33;;;;;15.99;97.69;101482.34;5040439;28;45272;-72
2023/04/10 04:47:46;;;;;;;;;11.67;10.00;;;;;16.05;96.89;101478.94;5007808;28;45212;-72
2023/04/10 04:50:11;;;;;;;;;13.33;13.33;;;;;16.06;96.09;101477.94;5025831;28;45414;-72
2023/04/10 04:52:36;;;;;;;;;13.25;13.25;;;;;16.00;96.94;101470.34;5025444;28;46108;-72
2023/04/10 04:55:02;;;;;;;;;14.25;13.50;;;;;16.04;97.06;101468.13;5025183;28;45220;-72
2023/04/10 04:57:27;;;;;;;;;13.67;13.67;;;;;16.07;97.11;101479.63;5007816;28;45359;-72
2023/04/10 04:59:53;;;;;;;;;12.00;11.75;;;;;16.06;95.33;101472.44;5025749;28;45268;-72
2023/04/10 05:02:21;;;;;;;;;15.50;15.25;;;;;15.98;96.49;101472.41;5025422;28;46400;-72
2023/04/10 05:04:46;;;;;;;;;14.67;12.00;;;;;15.95;97.71;101481.81;5007260;28;45397;-72
2023/04/10 05:07:12;;;;;;;;;14.00;14.00;;;;;16.14;97.59;101490.81;5007329;28;45378;-72
2023/04/10 05:09:37;;;;;;;;;10.50;8.75;;;;;16.12;98.16;101480.00;5007436;28;45432;-72
2023/04/10 05:12:03;;;;;;;;;16.00;14.00;;;;;16.22;97.40;101490.78;5007484;28;47534;-72
2023/04/10 05:14:28;;;;;;;;;15.50;14.25;;;;;16.21;97.80;101491.84;5025224;28;45450;-72
2023/04/10 05:16:53;;;;;;;;;15.75;14.00;;;;;16.07;98.04;101479.63;5037177;28;45235;-72
2023/04/10 05:19:19;;;;;;;;;17.25;15.00;;;;;16.08;99.13;101480.47;5027490;28;45244;-72
2023/04/10 05:21:45;;;;;;;;;3.75;2.75;;;;;16.15;97.49;101479.66;5045231;28;45441;-72
2023/04/10 05:24:10;;;;;;;;;14.50;13.25;;;;;16.13;98.48;101468.00;5044789;28;45405;-72
2023/04/10 05:26:36;;;;;;;;;14.67;14.00;;;;;16.08;98.36;101473.13;5045418;28;45356;-73
2023/04/10 05:29:01;;;;;;;;;18.00;14.75;;;;;16.20;99.31;101496.47;5027721;28;45556;-72
2023/04/10 05:31:26;;;;;;;;;13.33;12.67;;;;;16.30;98.14;101505.41;5045086;28;46344;-72
2023/04/10 05:33:52;;;;;;;;;15.25;15.25;;;;;16.32;97.26;101488.78;5045044;28;45165;-72
2023/04/10 05:36:17;;;;;;;;;14.67;13.00;;;;;16.27;97.00;101481.06;5043878;28;45305;-72
2023/04/10 05:38:43;;;;;;;;;12.33;11.67;;;;;16.36;97.98;101495.66;5045017;28;45524;-72
2023/04/10 05:41:08;;;;;;;;;13.50;9.00;;;;;16.30;98.19;101491.69;5045174;28;45693;-71
2023/04/10 05:43:33;;;;;;;;;16.67;16.00;;;;;16.47;97.19;101497.22;5026930;28;45380;-72
2023/04/10 05:45:59;;;;;;;;;14.67;13.67;;;;;16.48;97.64;101497.06;5034181;28;45465;-72
2023/04/10 05:48:25;;;;;;;;;20.75;16.75;;;;;16.48;97.49;101487.97;5026398;28;45332;-72
2023/04/10 05:50:51;;;;;;;;;11.33;11.33;;;;;16.45;96.99;101478.16;5024930;28;46118;-72
2023/04/10 05:53:19;;;;;;;;;13.67;10.67;;;;;16.47;97.50;101488.97;5024421;28;45318;-71
2023/04/10 05:55:50;;;;;;;;;18.67;14.67;;;;;16.46;99.36;101490.88;5007173;28;45210;-72
2023/04/10 05:58:15;;;;;;;;;13.00;13.00;;;;;16.45;98.40;101480.91;5024965;28;45373;-73
2023/04/10 06:00:40;;;;;;;;;13.67;13.33;;;;;16.44;99.38;101470.13;5024598;28;46021;-72
2023/04/10 06:03:06;;;;;;;;;16.25;15.75;;;;;16.51;100.00;101482.16;5019969;28;45430;-72
2023/04/10 06:05:31;;;;;;;;;14.75;14.75;;;;;16.57;100.00;101497.94;5024960;28;45446;-72
2023/04/10 06:07:56;;;;;;;;;18.00;17.50;;;;;16.56;99.52;101482.50;5006650;28;45271;-72
2023/04/10 06:10:22;;;;;;;;;16.67;16.33;;;;;16.63;100.00;101478.94;5006537;28;46158;-72
2023/04/10 06:12:47;;;;;;;;;16.00;14.75;;;;;16.72;99.85;101477.91;5024457;28;45364;-70
2023/04/10 06:15:13;;;;;;;;;46.75;40.25;;;;;16.68;99.97;101481.16;5035857;28;45769;-74
2023/04/10 06:17:42;;;;;;;;;22.50;21.75;;;;;16.72;99.60;101475.19;5026840;28;45409;-71
2023/04/10 06:20:08;;;;;;;;;21.50;20.00;;;;;16.93;98.71;101499.38;5006374;28;48204;-72
2023/04/10 06:22:33;;;;;;;;;25.75;20.25;;;;;16.95;98.04;101485.47;5006046;28;45515;-72
2023/04/10 06:24:59;;;;;;;;;19.75;18.00;;;;;17.11;97.97;101505.50;5024005;28;45355;-71
2023/04/10 06:27:26;;;;;;;;;20.00;19.00;;;;;17.12;96.40;101499.00;5023112;28;45548;-71
2023/04/10 06:29:51;;;;;;;;;22.00;20.50;;;;;17.06;96.67;101487.84;5024119;28;45371;-71
2023/04/10 06:32:17;;;;;;;;;22.00;18.25;;;;;17.07;96.70;101484.09;5024048;28;45430;-71
2023/04/10 06:34:42;;;;;;;;;23.00;19.75;;;;;17.27;96.04;101496.41;5006001;28;45309;-72
2023/04/10 06:37:07;;;;;;;;;21.25;19.75;;;;;17.34;95.50;101505.66;5024123;28;45495;-72
2023/04/10 06:39:33;;;;;;;;;15.50;15.50;;;;;17.35;95.53;101506.53;5023565;28;45433;-73
2023/04/10 06:41:58;;;;;;;;;18.25;16.25;;;;;17.37;94.44;101501.72;5022569;28;45554;-73
2023/04/10 06:44:23;;;;;;;;;14.67;14.67;;;;;17.41;94.31;101492.09;5007937;28;45305;-73
2023/04/10 06:46:49;;;;;;;;;17.25;17.25;;;;;17.58;93.00;101498.41;5025307;28;45253;-73
2023/04/10 06:49:14;;;;;;;;;17.25;15.75;;;;;17.41;94.01;101472.84;5022538;28;46934;-73
2023/04/10 06:51:40;;;;;;;;;19.50;18.75;;;;;17.50;92.92;101480.91;5005773;28;45384;-73
2023/04/10 06:54:05;;;;;;;;;18.67;18.67;;;;;17.59;92.94;101490.00;5023769;28;45438;-73
2023/04/10 06:56:30;;;;;;;;;18.75;16.25;;;;;17.60;93.35;101474.38;5022822;28;45239;-72
2023/04/10 06:58:56;;;;;;;;;18.00;15.67;;;;;17.60;92.06;101469.75;5023540;28;45877;-72
2023/04/10 07:01:22;;;;;;;;;17.00;16.75;;;;;17.60;91.86;101480.72;5005511;28;45737;-72
2023/04/10 07:03:47;;;;;;;;;17.50;17.50;;;;;17.56;92.69;101462.88;5005724;28;45260;-72
2023/04/10 07:06:12;;;;;;;;;19.00;17.25;;;;;17.70;91.69;101459.41;5024044;28;45178;-72
2023/04/10 07:08:38;;;;;;;;;13.33;13.00;;;;;17.88;91.22;101476.53;5023331;28;45333;-72
2023/04/10 07:11:03;;;;;;;;;18.00;18.00;;;;;17.85;91.05;101465.03;5008361;28;45353;-72
2023/04/10 07:13:28;;;;;;;;;14.33;12.67;;;;;17.93;90.47;101462.25;5025962;28;45441;-72
2023/04/10 07:15:54;;;;;;;;;15.00;14.75;;;;;18.02;89.18;101463.06;5025756;28;45474;-71
2023/04/10 07:18:19;;;;;;;;;19.25;18.50;;;;;18.02;89.12;101447.41;5025327;28;46921;-72
2023/04/10 07:20:45;;;;;;;;;13.00;13.00;;;;;18.09;88.50;101447.56;5013732;28;45527;-72
2023/04/10 07:23:11;;;;;;;;;16.50;13.50;;;;;18.09;88.38;101475.06;5024994;28;45478;-71
2023/04/10 07:25:36;;;;;;;;;18.25;15.50;;;;;17.94;88.88;101416.34;5043429;28;45473;-72
2023/04/10 07:28:01;;;;;;;;;17.50;17.50;;;;;18.25;87.46;101448.31;5043205;28;45414;-72
2023/04/10 07:30:27;;;;;;;;;21.00;17.67;;;;;18.31;86.92;101441.22;5042064;28;45383;-72
2023/04/10 07:32:52;;;;;;;;;14.33;13.33;;;;;18.33;86.97;101417.16;5028406;28;45288;-72
2023/04/10 07:35:18;;;;;;;;;15.00;14.50;;;;;18.26;86.29;101403.25;5023543;28;45561;-72
2023/04/10 07:37:43;;;;;;;;;16.00;15.00;;;;;18.51;85.55;101436.94;5004449;28;47122;-72
2023/04/10 07:40:09;;;;;;;;;17.25;17.00;;;;;18.49;85.03;101417.00;5022022;28;45255;-73
2023/04/10 07:42:35;;;;;;;;;14.00;14.00;;;;;18.69;85.09;101435.84;5011182;28;45352;-72
2023/04/10 07:45:00;;;;;;;;;18.00;15.33;;;;;18.68;84.62;101421.22;5035308;28;45462;-72
2023/04/10 07:47:26;;;;;;;;;18.67;16.00;;;;;18.73;83.58;101416.00;5022510;28;45676;-72
2023/04/10 07:49:51;;;;;;;;;18.00;16.67;;;;;18.59;83.09;101379.13;5030046;28;45485;-73
2023/04/10 07:52:17;;;;;;;;;20.67;17.33;;;;;19.02;83.35;101440.00;5032180;28;45415;-73
2023/04/10 07:54:42;;;;;;;;;12.33;12.33;;;;;18.92;82.06;101434.75;5034423;28;45490;-71
2023/04/10 07:57:07;;;;;;;;;16.25;16.00;;;;;18.99;82.34;101427.44;5033795;28;45558;-73
2023/04/10 07:59:33;;;;;;;;;13.00;13.00;;;;;19.09;81.16;101415.31;5032855;28;45420;-73
2023/04/10 08:01:58;;;;;;;;;17.33;15.67;;;;;19.21;80.62;101431.22;5033130;28;45404;-73
2023/04/10 08:04:23;;;;;;;;;15.67;15.67;;;;;19.25;80.68;101423.41;5033291;28;45568;-73
2023/04/10 08:06:49;;;;;;;;;15.00;13.67;;;;;19.36;79.33;101421.03;5033793;28;46456;-72
2023/04/10 08:09:14;;;;;;;;;16.50;14.25;;;;;19.48;78.84;101426.13;5031562;28;45482;-72
2023/04/10 08:11:40;;;;;;;;;20.00;16.67;;;;;19.48;78.40;101418.72;5017603;28;45407;-72
2023/04/10 08:14:05;;;;;;;;;16.00;15.67;;;;;19.69;77.93;101445.50;5038296;28;45426;-72
2023/04/10 08:16:33;;;;;;;;;18.25;17.50;;;;;19.53;77.78;101410.72;5033803;28;45452;-73
2023/04/10 08:18:59;;;;;;;;;17.00;15.67;;;;;20.01;77.43;101453.38;5022179;28;45408;-73
2023/04/10 08:21:26;;;;;;;;;18.75;18.75;;;;;20.14;76.49;101442.50;5004619;28;45265;-74
2023/04/10 08:23:54;;;;;;;;;16.67;14.00;;;;;20.46;75.71;101438.41;5022630;28;45570;-73
2023/04/10 08:26:20;;;;;;;;;16.25;16.25;;;;;20.48;73.46;101433.56;5004663;28;48095;-73
2023/04/10 08:28:49;;;;;;;;;14.67;14.67;;;;;20.56;73.75;101440.84;5022351;28;45339;-73
2023/04/10 08:31:16;;;;;;;;;19.33;16.67;;;;;20.52;72.73;101423.00;5022785;28;45275;-73
2023/04/10 08:33:41;;;;;;;;;19.00;18.67;;;;;20.46;72.52;101396.16;5022856;28;45221;-74
2023/04/10 08:36:11;;;;;;;;;21.00;17.33;;;;;20.35;71.18;101393.94;5004658;28;46913;-74
2023/04/10 08:38:37;;;;;;;;;16.00;15.00;;;;;20.54;70.66;101441.03;5022110;28;45327;-74
2023/04/10 08:41:03;;;;;;;;;17.00;15.33;;;;;20.56;70.96;101449.13;5022583;28;45332;-74
2023/04/10 08:43:29;;;;;;;;;16.33;16.33;;;;;20.58;71.07;101416.66;5022656;28;45281;-74
2023/04/10 08:45:55;;;;;;;;;16.33;15.67;;;;;20.87;71.06;101435.00;5025451;28;46333;-73
2023/04/10 08:48:20;;;;;;;;;16.00;14.00;;;;;20.98;69.97;101443.59;5003999;28;45304;-73
2023/04/10 08:50:47;;;;;;;;;16.33;16.00;;;;;20.82;69.86;101415.41;5007257;28;45269;-73
2023/04/10 08:53:14;;;;;;;;;13.33;12.00;;;;;20.90;69.91;101418.84;5008083;28;45487;-73
2023/04/10 08:55:40;;;;;;;;;12.00;12.00;;;;;20.62;69.82;101419.88;5026097;28;46378;-73
2023/04/10 08:58:07;;;;;;;;;14.00;14.00;;;;;20.85;73.24;101435.19;5025324;28;45315;-72
2023/04/10 09:00:33;;;;;;;;;13.67;12.33;;;;;20.85;76.20;101435.19;5007682;28;45411;-74
2023/04/10 09:02:59;;;;;;;;;15.00;13.67;;;;;20.84;77.63;101430.72;5007957;28;45265;-74
2023/04/10 09:05:28;;;;;;;;;13.67;13.00;;;;;21.01;84.36;101424.91;5007772;28;48166;-74
2023/04/10 09:07:54;;;;;;;;;12.67;12.67;;;;;21.12;88.78;101421.56;5007183;28;45921;-73
2023/04/10 09:10:19;;;;;;;;;11.67;10.67;;;;;21.18;86.88;101418.06;5007898;28;45443;-72
2023/04/10 09:12:47;;;;;;;;;11.67;11.67;;;;;21.32;85.91;101437.31;5007974;28;45344;-73
2023/04/10 09:15:13;;;;;;;;;12.00;11.33;;;;;21.44;82.71;101429.28;5018483;28;48501;-73
2023/04/10 09:18:00;;;;;;;;;13.33;12.33;;;;;21.54;87.78;101421.50;5009628;28;46335;-73
2023/04/10 09:20:28;;;;;;;;;14.00;12.33;;;;;21.52;85.83;101408.91;5023954;28;45542;-73
2023/04/10 09:22:53;;;;;;;;;13.00;12.00;;;;;21.27;85.28;101414.06;5025658;28;45578;-72
2023/04/10 09:25:32;;;;;;;;;15.00;13.33;;;;;21.46;91.63;101415.28;5038278;28;45511;-73
2023/04/10 09:28:02;;;;;;;;;14.00;14.00;;;;;21.21;87.89;101387.25;5025138;28;45462;-74
2023/04/10 09:30:33;;;;;;;;;14.00;14.00;;;;;21.46;89.38;101401.44;5006957;28;45415;-74
2023/04/10 09:32:58;;;;;;;;;16.67;16.67;;;;;21.43;88.00;101388.88;5007513;28;45629;-73
2023/04/10 09:35:35;;;;;;;;;13.67;12.00;;;;;21.44;86.85;101379.53;5023289;28;45320;-74
2023/04/10 09:38:01;;;;;;;;;13.00;12.00;;;;;21.54;87.50;101376.41;5024844;28;45178;-73
2023/04/10 09:40:26;;;;;;;;;12.33;12.33;;;;;21.71;85.09;101384.13;5025045;28;45280;-73
2023/04/10 09:42:54;;;;;;;;;16.33;13.00;;;;;22.01;85.65;101383.84;5025607;28;45590;-74
2023/04/10 09:45:21;;;;;;;;;11.33;11.33;;;;;22.03;81.34;101367.91;5029673;28;45507;-73
2023/04/10 09:48:06;;;;;;;;;13.67;13.67;;;;;21.95;79.01;101379.13;5024756;28;45324;-73
2023/04/10 09:50:42;;;;;;;;;13.67;13.67;;;;;21.74;79.93;101374.56;5014479;28;45312;-73
2023/04/10 09:53:13;;;;;;;;;12.00;10.33;;;;;21.83;77.57;101384.41;5044712;28;45316;-74
2023/04/10 09:55:40;;;;;;;;;13.00;11.00;;;;;21.92;76.76;101374.84;5044642;28;45461;-74
2023/04/10 09:58:06;;;;;;;;;14.00;13.00;;;;;21.74;74.16;101342.25;5044686;28;45413;-72
2023/04/10 10:00:39;;;;;;;;;14.33;11.33;;;;;22.08;75.02;101368.97;5026787;28;45496;-75
2023/04/10 10:03:08;;;;;;;;;13.00;12.00;;;;;22.20;74.32;101362.84;5043683;28;45458;-75
2023/04/10 10:05:39;;;;;;;;;11.33;10.67;;;;;22.35;73.10;101367.13;5044388;28;46620;-75
2023/04/10 10:08:05;;;;;;;;;13.67;13.67;;;;;22.34;71.64;101348.81;5044056;28;45311;-74
2023/04/10 10:10:30;;;;;;;;;13.00;10.00;;;;;22.33;69.17;101358.19;5026698;28;45471;-74
2023/04/10 10:13:01;;;;;;;;;7.67;7.67;;;;;22.02;68.03;101344.91;5044992;28;45343;-74
2023/04/10 10:15:36;;;;;;;;;10.00;10.00;;;;;22.16;68.45;101358.78;5023681;28;47178;-73
2023/04/10 10:18:33;;;;;;;;;13.33;10.00;;;;;22.13;69.17;101354.53;5031884;28;45266;-74
2023/04/10 10:21:00;;;;;;;;;16.33;9.67;;;;;22.11;68.69;101331.72;5023460;28;45279;-75
2023/04/10 10:23:26;;;;;;;;;10.33;10.33;;;;;22.23;68.03;101351.34;5032520;28;45423;-74
2023/04/10 10:25:53;;;;;;;;;10.00;10.00;;;;;22.03;67.53;101313.41;5023828;28;46552;-75
2023/04/10 10:28:20;;;;;;;;;9.00;9.00;;;;;22.10;66.72;101332.78;5006484;28;45432;-74
2023/04/10 10:30:46;;;;;;;;;11.00;11.00;;;;;22.02;66.65;101311.69;5022777;28;45438;-76
2023/04/10 10:33:13;;;;;;;;;9.00;9.00;;;;;22.11;64.85;101334.50;5024644;28;45253;-75
2023/04/10 10:35:39;;;;;;;;;12.00;9.00;;;;;21.91;63.93;101339.09;5024003;28;45650;-74
2023/04/10 10:38:05;;;;;;;;;9.67;9.67;;;;;21.75;64.17;101327.34;5023610;28;45443;-74
2023/04/10 10:40:43;;;;;;;;;9.00;9.00;;;;;21.97;64.95;101335.53;5006012;28;45354;-74
2023/04/10 10:43:20;;;;;;;;;8.00;8.00;;;;;22.20;63.92;101324.94;5024270;28;45607;-74
2023/04/10 10:46:10;;;;;;;;;7.33;6.00;;;;;22.30;61.79;101319.81;5027161;28;46186;-75
2023/04/10 10:48:36;;;;;;;;;6.33;6.33;;;;;22.16;60.27;101312.56;5023181;28;45348;-75
2023/04/10 10:51:02;;;;;;;;;8.00;8.00;;;;;22.23;60.84;101309.81;5023696;28;45352;-74
2023/04/10 10:53:38;;;;;;;;;7.00;7.00;;;;;22.07;60.09;101288.91;5022691;28;45537;-74
2023/04/10 10:56:33;;;;;;;;;8.00;8.00;;;;;21.69;60.78;101295.00;5023285;28;45411;-74
2023/04/10 10:59:00;;;;;;;;;6.33;6.33;;;;;21.68;61.69;101297.97;5005646;28;45382;-74
2023/04/10 11:01:27;;;;;;;;;5.00;5.00;;;;;21.68;61.10;101301.59;5005318;28;45256;-74
2023/04/10 11:03:53;;;;;;;;;18.00;17.00;;;;;21.57;61.35;101296.63;5023544;28;45529;-73
2023/04/10 11:06:20;;;;;;;;;11.33;11.33;;;;;21.73;60.79;101315.63;5005905;28;46573;-74
2023/04/10 11:08:47;;;;;;;;;20.67;18.00;;;;;21.82;60.45;101315.44;5006508;28;45441;-75